METAR Formatted Surface Weather Observation
Issued by NWS

Home | Current Version | Previous Version | Text Only | Print | Product List | Glossary On
Versions: 1 2 3 4 5 6 7 8 9 10 11 12 13 14 15 16 17
000
SAUS46 KMTR 250953
MTRBAN
METAR KBAN 250952Z AUTO 19010G21KT 160V220 CLR 12/M12 A3006 RMK AO2
SLP079 T01221117 $



USA.gov is the U.S. government's official web portal to all federal, state and local government web resources and services.